Weather History for Mackinac Island, MI

Change the Weather History Date:

Thursday, January 31, 2013

  Actual Average Record
Temperature  
Mean Temperature 12 °F -  
Max Temperature 15 °F 25 °F 41 °F (1974)
Min Temperature 8 °F 14 °F -8 °F (1985)
Degree Days  
Heating Degree Days 54    
Moisture  
Dew Point 7 °F    
Average Humidity 81    
Maximum Humidity 87    
Minimum Humidity 73    
Precipitation  
Precipitation 0.00 in - - ()
Sea Level Pressure  
Sea Level Pressure 29.50 in    
Wind  
Wind Speed 13 mph (NW)    
Max Wind Speed 20 mph    
Max Gust Speed 26 mph    
Visibility 7 miles    
Events Snow    
Averages and records for this station are not official NWS values.
T = Trace of Precipitation, MM = Missing Value Source: NWS Daily Summary

Daily Weather History Graph

Daily Weather History Graph

Search for Another Location

Airport:

Trip Planner

Search our weather history database for the weather conditions in past years. The results will help you decide how hot, cold, wet, or windy it might be!

Date:

Astronomy

Jan. 31, 2013 Rise Set
Actual Time 8:01 AM EST 5:43 PM EST
Civil Twilight 7:29 AM EST 6:15 PM EST
Nautical Twilight 6:53 AM EST 6:50 PM EST
Astronomical Twilight 6:18 AM EST 7:25 PM EST
Moon 11:04 PM EST (1/31) 9:42 AM EST (1/31)
Length of Visible Light 10h 45m
Length of Day
9h 41m
Waning Gibbous, 80% of the Moon is Illuminated
Jan 31
Waning Gibbous
Feb 3
Last Quarter
Feb 10
New
Feb 17
First Quarter
Feb 25
Full

Hourly Weather History & Observations

Time (EST) Temp. Windchill Dew Point Humidity Pressure Visibility Wind Dir Wind Speed Gust Speed Precip Events Conditions
12:15 AM 14.5 °F -0.2 °F 10.8 °F 85% 29.16 in 4.0 mi North 13.8 mph 25.3 mph N/A Snow Light Snow
12:34 AM 13.8 °F -2.2 °F 10.0 °F 85% 29.17 in 7.0 mi NNW 16.1 mph 23.0 mph N/A Snow Light Snow
1:14 AM 12.6 °F -1.4 °F 8.4 °F 83% 29.21 in 3.0 mi North 11.5 mph 21.9 mph N/A Snow Light Snow
1:34 AM 12.0 °F -2.7 °F 7.7 °F 83% 29.21 in 2.5 mi North 12.7 mph 20.7 mph N/A Snow Light Snow
1:54 AM 11.3 °F -0.4 °F 6.8 °F 82% 29.23 in 7.0 mi NNW 8.1 mph 19.6 mph N/A Snow Light Snow
2:14 AM 10.9 °F -4.1 °F 6.3 °F 81% 29.24 in 10.0 mi NNW 12.7 mph 23.0 mph N/A   Overcast
2:34 AM 10.4 °F -6.6 °F 6.8 °F 85% 29.25 in 2.0 mi NNW 16.1 mph 24.2 mph N/A Snow Light Snow
2:54 AM 10.0 °F -4.5 °F 5.9 °F 83% 29.26 in 3.0 mi NW 11.5 mph 21.9 mph N/A Snow Light Snow
3:14 AM 9.5 °F -9.3 °F 4.6 °F 81% 29.27 in 10.0 mi NW 19.6 mph 25.3 mph N/A   Overcast
3:34 AM 8.6 °F -7.7 °F 3.9 °F 81% 29.27 in 10.0 mi NNW 13.8 mph 23.0 mph N/A   Overcast
3:54 AM 9.0 °F -3.2 °F 4.8 °F 83% 29.28 in 10.0 mi NW 8.1 mph 20.7 mph N/A   Overcast
4:14 AM 8.8 °F -10.3 °F 3.7 °F 80% 29.29 in 7.0 mi NW 19.6 mph 26.5 mph N/A   Overcast
4:34 AM 8.6 °F -5.5 °F 4.1 °F 82% 29.30 in 10.0 mi NW 10.4 mph 20.7 mph N/A   Overcast
4:54 AM 9.1 °F -7.0 °F 4.6 °F 82% 29.31 in 10.0 mi NW 13.8 mph 21.9 mph N/A   Overcast
5:14 AM 9.1 °F -7.0 °F 4.5 °F 81% 29.32 in 10.0 mi WNW 13.8 mph 19.6 mph N/A   Overcast
5:34 AM 9.3 °F -7.4 °F 4.6 °F 81% 29.33 in 10.0 mi WNW 15.0 mph 23.0 mph N/A   Overcast
5:54 AM 9.1 °F -8.2 °F 4.6 °F 82% 29.34 in 10.0 mi WNW 16.1 mph 25.3 mph N/A   Overcast
6:14 AM 9.3 °F -7.4 °F 5.0 °F 83% 29.35 in 10.0 mi WNW 15.0 mph 23.0 mph N/A   Overcast
6:34 AM 9.3 °F -6.8 °F 5.2 °F 83% 29.36 in 7.0 mi WNW 13.8 mph 21.9 mph N/A   Overcast
6:54 AM 9.5 °F -7.8 °F 5.4 °F 83% 29.37 in 5.0 mi WNW 16.1 mph - N/A   Overcast
7:14 AM 9.3 °F -6.1 °F 4.8 °F 82% 29.39 in 4.0 mi NW 12.7 mph 20.7 mph N/A   Overcast
7:34 AM 9.0 °F -8.5 °F 4.5 °F 82% 29.40 in 5.0 mi NW 16.1 mph 21.9 mph N/A   Haze
7:54 AM 8.6 °F -5.5 °F 4.3 °F 83% 29.41 in 4.0 mi WNW 10.4 mph 23.0 mph N/A   Haze
8:14 AM 8.6 °F -9.5 °F 3.7 °F 81% 29.43 in 10.0 mi WNW 17.3 mph 21.9 mph N/A   Overcast
8:34 AM 8.6 °F -7.0 °F 3.9 °F 81% 29.44 in 10.0 mi WNW 12.7 mph 20.7 mph N/A   Overcast
8:54 AM 9.0 °F -5.1 °F 4.5 °F 82% 29.46 in 3.0 mi WNW 10.4 mph 18.4 mph N/A Snow Light Snow
9:15 AM 9.0 °F -5.9 °F 4.8 °F 83% 29.47 in 1.5 mi WNW 11.5 mph 21.9 mph N/A Snow Light Snow
9:34 AM 9.3 °F -5.4 °F 4.8 °F 82% 29.47 in 4.0 mi WNW 11.5 mph 18.4 mph N/A   Overcast
9:54 AM 9.5 °F -5.2 °F 5.5 °F 84% 29.48 in 3.0 mi WNW 11.5 mph 16.1 mph N/A   Overcast
10:34 AM 10.4 °F -5.4 °F 5.2 °F 79% 29.50 in 7.0 mi NW 13.8 mph 18.4 mph N/A   Overcast
10:54 AM 10.9 °F -4.1 °F 5.4 °F 78% 29.51 in 10.0 mi WNW 12.7 mph 17.3 mph N/A   Overcast
11:34 AM 11.8 °F -3.0 °F 6.1 °F 78% 29.53 in 4.0 mi WNW 12.7 mph 18.4 mph N/A   Haze
11:59 AM 12.2 °F -1.8 °F 6.8 °F 79% 29.53 in 7.0 mi West 11.5 mph 16.1 mph N/A   Overcast
12:14 PM 12.6 °F 2.2 °F 6.8 °F 78% 29.53 in 7.0 mi WNW 6.9 mph 16.1 mph N/A   Overcast
12:34 PM 12.9 °F -0.2 °F 7.5 °F 79% 29.54 in 5.0 mi WNW 10.4 mph 18.4 mph N/A Snow Light Snow
12:54 PM 13.5 °F -1.5 °F 7.5 °F 77% 29.55 in 10.0 mi WNW 13.8 mph 19.6 mph N/A   Overcast
1:14 PM 13.5 °F 0.5 °F 7.5 °F 77% 29.55 in 10.0 mi NW 10.4 mph 18.4 mph N/A   Overcast
1:34 PM 13.6 °F 0.0 °F 7.3 °F 76% 29.55 in 7.0 mi WNW 11.5 mph 18.4 mph N/A   Overcast
1:54 PM 14.0 °F -1.4 °F 7.9 °F 77% 29.56 in 5.0 mi West 15.0 mph 20.7 mph N/A   Haze
2:14 PM 14.7 °F 0.7 °F 8.4 °F 76% 29.56 in 7.0 mi NW 12.7 mph 20.7 mph N/A   Overcast
2:34 PM 15.1 °F 1.1 °F 8.6 °F 76% 29.57 in 4.0 mi WNW 12.7 mph 20.7 mph N/A Snow Light Snow
2:54 PM 14.9 °F -1.8 °F 9.0 °F 77% 29.58 in 7.0 mi WNW 18.4 mph 21.9 mph N/A   Overcast
3:14 PM 14.9 °F 0.9 °F 8.6 °F 76% 29.59 in 10.0 mi WNW 12.7 mph 23.0 mph N/A   Overcast
3:34 PM 14.9 °F 0.9 °F 7.5 °F 73% 29.60 in 10.0 mi WNW 12.7 mph 26.5 mph N/A   Overcast
4:15 PM 14.7 °F 0.1 °F 9.5 °F 80% 29.62 in 1.2 mi WNW 13.8 mph 18.4 mph N/A Snow Light Snow
4:34 PM 14.7 °F 1.4 °F 10.6 °F 84% 29.63 in 0.8 mi NW 11.5 mph 18.4 mph N/A Snow Light Snow
4:54 PM 14.5 °F 1.9 °F 9.3 °F 80% 29.63 in 4.0 mi NW 10.4 mph - N/A   Haze
5:15 PM 14.4 °F 3.3 °F 8.8 °F 79% 29.65 in 7.0 mi NW 8.1 mph 16.1 mph N/A   Overcast
5:34 PM 14.0 °F 2.0 °F 9.1 °F 81% 29.65 in 5.0 mi NW 9.2 mph - N/A   Haze
6:15 PM 13.8 °F 0.2 °F 8.2 °F 78% 29.68 in 10.0 mi NW 11.5 mph 18.4 mph N/A   Overcast
6:34 PM 13.8 °F 2.7 °F 8.4 °F 79% 29.69 in 10.0 mi NW 8.1 mph - N/A   Overcast
7:15 PM 13.5 °F -0.2 °F 8.6 °F 81% 29.70 in 7.0 mi NW 11.5 mph 18.4 mph N/A   Overcast
7:34 PM 13.1 °F 0.9 °F 7.7 °F 79% 29.70 in 10.0 mi NW 9.2 mph 18.4 mph N/A   Overcast
7:54 PM 13.1 °F 0.9 °F 7.9 °F 80% 29.71 in 10.0 mi NNW 9.2 mph 16.1 mph N/A   Overcast
8:15 PM 13.1 °F 0.1 °F 7.7 °F 79% 29.72 in 10.0 mi NW 10.4 mph 17.3 mph N/A   Overcast
8:34 PM 13.1 °F 0.9 °F 7.7 °F 79% 29.73 in 10.0 mi NW 9.2 mph 18.4 mph N/A   Overcast
9:15 PM 13.1 °F -0.7 °F 8.2 °F 81% 29.74 in 10.0 mi WNW 11.5 mph 18.4 mph N/A   Overcast
9:34 PM 13.1 °F 0.1 °F 8.1 °F 80% 29.74 in 10.0 mi NW 10.4 mph 19.6 mph N/A   Overcast
9:54 PM 13.5 °F -0.2 °F 8.4 °F 80% 29.75 in 10.0 mi WNW 11.5 mph 17.3 mph N/A   Overcast
10:15 PM 13.5 °F 2.2 °F 8.6 °F 81% 29.75 in 10.0 mi NW 8.1 mph 16.1 mph N/A   Overcast
10:34 PM 13.1 °F 0.1 °F 8.6 °F 82% 29.76 in 5.0 mi WNW 10.4 mph 20.7 mph N/A Snow Light Snow
10:54 PM 12.9 °F 2.6 °F 9.1 °F 85% 29.77 in 1.8 mi North 6.9 mph - N/A Snow Light Snow
11:15 PM 11.8 °F 2.5 °F 8.2 °F 85% 29.77 in 2.5 mi North 5.8 mph - N/A Snow Light Snow
11:34 PM 11.3 °F 3.3 °F 8.2 °F 87% 29.78 in 2.0 mi North 4.6 mph - N/A Snow Light Snow
11:54 PM 11.3 °F 5.1 °F 7.7 °F 85% 29.78 in 2.0 mi North 3.5 mph - N/A Snow Light Snow